sensor_id;sensor_type;location;lat;lon;timestamp;temperature;humidity
53422;DHT22;39319;52.944;5.928;2023-05-07T00:00:01;16.50;99.90
53422;DHT22;39319;52.944;5.928;2023-05-07T00:02:28;16.40;99.90
53422;DHT22;39319;52.944;5.928;2023-05-07T00:04:54;16.30;99.90
53422;DHT22;39319;52.944;5.928;2023-05-07T00:07:20;16.40;99.90
53422;DHT22;39319;52.944;5.928;2023-05-07T00:09:46;16.50;99.90
53422;DHT22;39319;52.944;5.928;2023-05-07T00:12:12;16.40;99.90
53422;DHT22;39319;52.944;5.928;2023-05-07T00:14:37;16.30;99.90
53422;DHT22;39319;52.944;5.928;2023-05-07T00:17:03;16.30;99.90
53422;DHT22;39319;52.944;5.928;2023-05-07T00:19:29;16.50;99.90
53422;DHT22;39319;52.944;5.928;2023-05-07T00:21:57;16.30;99.90
53422;DHT22;39319;52.944;5.928;2023-05-07T00:24:26;16.30;99.90
53422;DHT22;39319;52.944;5.928;2023-05-07T00:26:52;16.30;99.90
53422;DHT22;39319;52.944;5.928;2023-05-07T00:29:18;16.20;99.90
53422;DHT22;39319;52.944;5.928;2023-05-07T00:31:44;16.40;99.90
53422;DHT22;39319;52.944;5.928;2023-05-07T00:34:09;16.40;99.90
53422;DHT22;39319;52.944;5.928;2023-05-07T00:36:35;16.20;99.90
53422;DHT22;39319;52.944;5.928;2023-05-07T00:39:01;16.30;99.90
53422;DHT22;39319;52.944;5.928;2023-05-07T00:41:29;16.20;99.90
53422;DHT22;39319;52.944;5.928;2023-05-07T00:43:56;16.30;99.90
53422;DHT22;39319;52.944;5.928;2023-05-07T00:46:23;16.30;99.90
53422;DHT22;39319;52.944;5.928;2023-05-07T00:48:50;16.30;99.90
53422;DHT22;39319;52.944;5.928;2023-05-07T00:51:17;16.30;99.90
53422;DHT22;39319;52.944;5.928;2023-05-07T00:53:43;16.80;99.90
53422;DHT22;39319;52.944;5.928;2023-05-07T00:56:10;16.30;99.90
53422;DHT22;39319;52.944;5.928;2023-05-07T00:58:36;16.40;99.90
53422;DHT22;39319;52.944;5.928;2023-05-07T01:01:02;16.40;99.90
53422;DHT22;39319;52.944;5.928;2023-05-07T01:03:28;16.40;99.90
53422;DHT22;39319;52.944;5.928;2023-05-07T01:05:55;16.30;99.90
53422;DHT22;39319;52.944;5.928;2023-05-07T01:08:23;16.40;99.90
53422;DHT22;39319;52.944;5.928;2023-05-07T01:10:52;16.40;99.90
53422;DHT22;39319;52.944;5.928;2023-05-07T01:13:19;16.30;99.90
53422;DHT22;39319;52.944;5.928;2023-05-07T01:15:45;16.30;99.90
53422;DHT22;39319;52.944;5.928;2023-05-07T01:18:11;16.30;99.90
53422;DHT22;39319;52.944;5.928;2023-05-07T01:20:37;16.20;99.90
53422;DHT22;39319;52.944;5.928;2023-05-07T01:23:03;16.30;99.90
53422;DHT22;39319;52.944;5.928;2023-05-07T01:25:31;16.40;99.90
53422;DHT22;39319;52.944;5.928;2023-05-07T01:27:56;16.10;99.90
53422;DHT22;39319;52.944;5.928;2023-05-07T01:30:22;16.20;99.90
53422;DHT22;39319;52.944;5.928;2023-05-07T01:32:52;16.30;99.90
53422;DHT22;39319;52.944;5.928;2023-05-07T01:35:20;16.40;99.90
53422;DHT22;39319;52.944;5.928;2023-05-07T01:37:48;16.20;99.90
53422;DHT22;39319;52.944;5.928;2023-05-07T01:40:14;16.30;99.90
53422;DHT22;39319;52.944;5.928;2023-05-07T01:42:42;16.10;99.90
53422;DHT22;39319;52.944;5.928;2023-05-07T01:45:08;16.10;99.90
53422;DHT22;39319;52.944;5.928;2023-05-07T01:47:36;16.20;99.90
53422;DHT22;39319;52.944;5.928;2023-05-07T01:50:01;16.20;99.90
53422;DHT22;39319;52.944;5.928;2023-05-07T01:52:28;16.10;99.90
53422;DHT22;39319;52.944;5.928;2023-05-07T01:54:54;16.00;99.90
53422;DHT22;39319;52.944;5.928;2023-05-07T01:57:19;16.10;99.90
53422;DHT22;39319;52.944;5.928;2023-05-07T01:59:46;16.10;99.90
53422;DHT22;39319;52.944;5.928;2023-05-07T02:02:11;16.20;99.90
53422;DHT22;39319;52.944;5.928;2023-05-07T02:04:37;16.00;99.90
53422;DHT22;39319;52.944;5.928;2023-05-07T02:07:03;16.20;99.90
53422;DHT22;39319;52.944;5.928;2023-05-07T02:09:28;15.90;99.90
53422;DHT22;39319;52.944;5.928;2023-05-07T02:11:54;16.10;99.90
53422;DHT22;39319;52.944;5.928;2023-05-07T02:14:20;16.10;99.90
53422;DHT22;39319;52.944;5.928;2023-05-07T02:16:46;15.80;99.90
53422;DHT22;39319;52.944;5.928;2023-05-07T02:19:11;15.90;99.90
53422;DHT22;39319;52.944;5.928;2023-05-07T02:21:37;15.80;99.90
53422;DHT22;39319;52.944;5.928;2023-05-07T02:24:03;15.90;99.90
53422;DHT22;39319;52.944;5.928;2023-05-07T02:26:29;15.90;99.90
53422;DHT22;39319;52.944;5.928;2023-05-07T02:28:54;15.90;99.90
53422;DHT22;39319;52.944;5.928;2023-05-07T02:31:20;15.90;99.90
53422;DHT22;39319;52.944;5.928;2023-05-07T02:33:46;16.00;99.90
53422;DHT22;39319;52.944;5.928;2023-05-07T02:36:12;15.90;99.90
53422;DHT22;39319;52.944;5.928;2023-05-07T02:38:38;15.80;99.90
53422;DHT22;39319;52.944;5.928;2023-05-07T02:41:04;15.90;99.90
53422;DHT22;39319;52.944;5.928;2023-05-07T02:43:30;15.90;99.90
53422;DHT22;39319;52.944;5.928;2023-05-07T02:46:06;15.70;99.90
53422;DHT22;39319;52.944;5.928;2023-05-07T02:48:32;15.70;99.90
53422;DHT22;39319;52.944;5.928;2023-05-07T02:50:59;15.90;99.90
53422;DHT22;39319;52.944;5.928;2023-05-07T02:53:26;15.80;99.90
53422;DHT22;39319;52.944;5.928;2023-05-07T02:56:01;15.90;99.90
53422;DHT22;39319;52.944;5.928;2023-05-07T02:58:27;15.80;99.90
53422;DHT22;39319;52.944;5.928;2023-05-07T03:00:52;15.70;99.90
53422;DHT22;39319;52.944;5.928;2023-05-07T03:03:20;15.70;99.90
53422;DHT22;39319;52.944;5.928;2023-05-07T03:05:45;15.70;99.90
53422;DHT22;39319;52.944;5.928;2023-05-07T03:08:12;15.50;99.90
53422;DHT22;39319;52.944;5.928;2023-05-07T03:10:38;15.50;99.90
53422;DHT22;39319;52.944;5.928;2023-05-07T03:13:04;15.60;99.90
53422;DHT22;39319;52.944;5.928;2023-05-07T03:15:30;15.60;99.90
53422;DHT22;39319;52.944;5.928;2023-05-07T03:17:56;15.50;99.90
53422;DHT22;39319;52.944;5.928;2023-05-07T03:20:22;15.50;99.90
53422;DHT22;39319;52.944;5.928;2023-05-07T03:22:48;15.40;99.90
53422;DHT22;39319;52.944;5.928;2023-05-07T03:25:13;15.40;99.90
53422;DHT22;39319;52.944;5.928;2023-05-07T03:27:40;15.30;99.90
53422;DHT22;39319;52.944;5.928;2023-05-07T03:30:07;15.40;99.90
53422;DHT22;39319;52.944;5.928;2023-05-07T03:32:34;15.30;99.90
53422;DHT22;39319;52.944;5.928;2023-05-07T03:35:01;15.30;99.90
53422;DHT22;39319;52.944;5.928;2023-05-07T03:37:27;15.20;99.90
53422;DHT22;39319;52.944;5.928;2023-05-07T03:39:52;15.20;99.90
53422;DHT22;39319;52.944;5.928;2023-05-07T03:42:19;15.30;99.90
53422;DHT22;39319;52.944;5.928;2023-05-07T03:44:45;15.20;99.90
53422;DHT22;39319;52.944;5.928;2023-05-07T03:47:10;15.20;99.90
53422;DHT22;39319;52.944;5.928;2023-05-07T03:49:36;15.20;99.90
53422;DHT22;39319;52.944;5.928;2023-05-07T03:52:02;15.20;99.90
53422;DHT22;39319;52.944;5.928;2023-05-07T03:54:28;15.10;99.90
53422;DHT22;39319;52.944;5.928;2023-05-07T03:56:54;15.10;99.90
53422;DHT22;39319;52.944;5.928;2023-05-07T03:59:19;15.10;99.90
53422;DHT22;39319;52.944;5.928;2023-05-07T04:01:45;15.10;99.90
53422;DHT22;39319;52.944;5.928;2023-05-07T04:04:11;15.00;99.90
53422;DHT22;39319;52.944;5.928;2023-05-07T04:06:37;15.00;99.90
53422;DHT22;39319;52.944;5.928;2023-05-07T04:09:02;15.00;99.90
53422;DHT22;39319;52.944;5.928;2023-05-07T04:11:29;15.00;99.90
53422;DHT22;39319;52.944;5.928;2023-05-07T04:13:54;15.00;99.90
53422;DHT22;39319;52.944;5.928;2023-05-07T04:16:20;15.00;99.90
53422;DHT22;39319;52.944;5.928;2023-05-07T04:18:46;14.90;99.90
53422;DHT22;39319;52.944;5.928;2023-05-07T04:21:19;15.00;99.90
53422;DHT22;39319;52.944;5.928;2023-05-07T04:23:46;14.90;99.90
53422;DHT22;39319;52.944;5.928;2023-05-07T04:26:12;14.90;99.90
53422;DHT22;39319;52.944;5.928;2023-05-07T04:28:38;14.90;99.90
53422;DHT22;39319;52.944;5.928;2023-05-07T04:31:05;15.00;99.90
53422;DHT22;39319;52.944;5.928;2023-05-07T04:33:31;15.00;99.90
53422;DHT22;39319;52.944;5.928;2023-05-07T04:35:57;14.80;99.90
53422;DHT22;39319;52.944;5.928;2023-05-07T04:38:22;15.00;99.90
53422;DHT22;39319;52.944;5.928;2023-05-07T04:40:49;14.80;99.90
53422;DHT22;39319;52.944;5.928;2023-05-07T04:43:15;14.90;99.90
53422;DHT22;39319;52.944;5.928;2023-05-07T04:45:41;14.80;99.90
53422;DHT22;39319;52.944;5.928;2023-05-07T04:48:08;14.80;99.90
53422;DHT22;39319;52.944;5.928;2023-05-07T04:50:34;14.80;99.90
53422;DHT22;39319;52.944;5.928;2023-05-07T04:53:02;14.80;99.90
53422;DHT22;39319;52.944;5.928;2023-05-07T04:55:28;14.80;99.90
53422;DHT22;39319;52.944;5.928;2023-05-07T04:57:54;14.70;99.90
53422;DHT22;39319;52.944;5.928;2023-05-07T05:00:20;14.70;99.90
53422;DHT22;39319;52.944;5.928;2023-05-07T05:02:46;14.80;99.90
53422;DHT22;39319;52.944;5.928;2023-05-07T05:05:11;14.80;99.90
53422;DHT22;39319;52.944;5.928;2023-05-07T05:07:37;14.70;99.90
53422;DHT22;39319;52.944;5.928;2023-05-07T05:10:04;15.00;99.90
53422;DHT22;39319;52.944;5.928;2023-05-07T05:12:31;14.80;99.90
53422;DHT22;39319;52.944;5.928;2023-05-07T05:14:57;14.90;99.90
53422;DHT22;39319;52.944;5.928;2023-05-07T05:17:23;15.00;99.90
53422;DHT22;39319;52.944;5.928;2023-05-07T05:19:49;14.90;99.90
53422;DHT22;39319;52.944;5.928;2023-05-07T05:22:15;14.80;99.90
53422;DHT22;39319;52.944;5.928;2023-05-07T05:24:40;14.80;99.90
53422;DHT22;39319;52.944;5.928;2023-05-07T05:27:06;14.80;99.90
53422;DHT22;39319;52.944;5.928;2023-05-07T05:29:32;14.60;99.90
53422;DHT22;39319;52.944;5.928;2023-05-07T05:31:58;14.70;99.90
53422;DHT22;39319;52.944;5.928;2023-05-07T05:34:23;14.80;99.90
53422;DHT22;39319;52.944;5.928;2023-05-07T05:36:49;14.70;99.90
53422;DHT22;39319;52.944;5.928;2023-05-07T05:39:15;14.80;99.90
53422;DHT22;39319;52.944;5.928;2023-05-07T05:41:41;14.80;99.90
53422;DHT22;39319;52.944;5.928;2023-05-07T05:44:06;14.80;99.90
53422;DHT22;39319;52.944;5.928;2023-05-07T05:46:32;14.70;99.90
53422;DHT22;39319;52.944;5.928;2023-05-07T05:48:58;14.70;99.90
53422;DHT22;39319;52.944;5.928;2023-05-07T05:51:24;14.70;99.90
53422;DHT22;39319;52.944;5.928;2023-05-07T05:53:49;14.80;99.90
53422;DHT22;39319;52.944;5.928;2023-05-07T05:56:16;14.70;99.90
53422;DHT22;39319;52.944;5.928;2023-05-07T05:58:41;14.80;99.90
53422;DHT22;39319;52.944;5.928;2023-05-07T06:01:07;14.80;99.90
53422;DHT22;39319;52.944;5.928;2023-05-07T06:03:33;14.80;99.90
53422;DHT22;39319;52.944;5.928;2023-05-07T06:05:59;14.80;99.90
53422;DHT22;39319;52.944;5.928;2023-05-07T06:08:28;14.80;99.90
53422;DHT22;39319;52.944;5.928;2023-05-07T06:10:54;14.80;99.90
53422;DHT22;39319;52.944;5.928;2023-05-07T06:13:20;14.80;99.90
53422;DHT22;39319;52.944;5.928;2023-05-07T06:15:46;14.80;99.90
53422;DHT22;39319;52.944;5.928;2023-05-07T06:18:11;14.80;99.90
53422;DHT22;39319;52.944;5.928;2023-05-07T06:20:37;14.80;99.90
53422;DHT22;39319;52.944;5.928;2023-05-07T06:23:03;14.80;99.90
53422;DHT22;39319;52.944;5.928;2023-05-07T06:25:29;14.80;99.90
53422;DHT22;39319;52.944;5.928;2023-05-07T06:27:54;14.90;99.90
53422;DHT22;39319;52.944;5.928;2023-05-07T06:30:20;14.90;99.90
53422;DHT22;39319;52.944;5.928;2023-05-07T06:32:46;14.90;99.90
53422;DHT22;39319;52.944;5.928;2023-05-07T06:35:12;14.90;99.90
53422;DHT22;39319;52.944;5.928;2023-05-07T06:37:38;14.80;99.90
53422;DHT22;39319;52.944;5.928;2023-05-07T06:40:08;14.90;99.90
53422;DHT22;39319;52.944;5.928;2023-05-07T06:42:35;15.00;99.90
53422;DHT22;39319;52.944;5.928;2023-05-07T06:45:01;15.10;99.90
53422;DHT22;39319;52.944;5.928;2023-05-07T06:47:28;15.10;99.90
53422;DHT22;39319;52.944;5.928;2023-05-07T06:49:53;15.10;99.90
53422;DHT22;39319;52.944;5.928;2023-05-07T06:52:19;15.10;99.90
53422;DHT22;39319;52.944;5.928;2023-05-07T06:54:45;15.20;99.90
53422;DHT22;39319;52.944;5.928;2023-05-07T06:57:13;15.20;99.90
53422;DHT22;39319;52.944;5.928;2023-05-07T06:59:38;15.20;99.90
53422;DHT22;39319;52.944;5.928;2023-05-07T07:02:04;15.30;99.90
53422;DHT22;39319;52.944;5.928;2023-05-07T07:04:30;15.30;99.90
53422;DHT22;39319;52.944;5.928;2023-05-07T07:06:56;15.30;99.90
53422;DHT22;39319;52.944;5.928;2023-05-07T07:09:22;15.30;99.90
53422;DHT22;39319;52.944;5.928;2023-05-07T07:11:48;15.30;99.90
53422;DHT22;39319;52.944;5.928;2023-05-07T07:14:14;15.40;99.90
53422;DHT22;39319;52.944;5.928;2023-05-07T07:16:40;15.30;99.90
53422;DHT22;39319;52.944;5.928;2023-05-07T07:19:06;15.50;99.90
53422;DHT22;39319;52.944;5.928;2023-05-07T07:21:32;15.40;99.90
53422;DHT22;39319;52.944;5.928;2023-05-07T07:23:57;15.50;99.90
53422;DHT22;39319;52.944;5.928;2023-05-07T07:26:23;15.70;99.90
53422;DHT22;39319;52.944;5.928;2023-05-07T07:28:49;15.60;99.90
53422;DHT22;39319;52.944;5.928;2023-05-07T07:31:17;15.70;99.90
53422;DHT22;39319;52.944;5.928;2023-05-07T07:33:42;15.70;99.90
53422;DHT22;39319;52.944;5.928;2023-05-07T07:36:09;15.80;99.90
53422;DHT22;39319;52.944;5.928;2023-05-07T07:38:34;15.80;99.90
53422;DHT22;39319;52.944;5.928;2023-05-07T07:41:01;16.00;99.90
53422;DHT22;39319;52.944;5.928;2023-05-07T07:43:27;15.90;99.90
53422;DHT22;39319;52.944;5.928;2023-05-07T07:45:53;16.00;99.90
53422;DHT22;39319;52.944;5.928;2023-05-07T07:48:23;16.00;99.90
53422;DHT22;39319;52.944;5.928;2023-05-07T07:50:50;16.10;99.90
53422;DHT22;39319;52.944;5.928;2023-05-07T07:53:19;16.00;99.90
53422;DHT22;39319;52.944;5.928;2023-05-07T07:55:44;16.10;99.90
53422;DHT22;39319;52.944;5.928;2023-05-07T07:58:12;16.20;99.90
53422;DHT22;39319;52.944;5.928;2023-05-07T08:00:38;16.20;99.90
53422;DHT22;39319;52.944;5.928;2023-05-07T08:03:04;16.30;99.90
53422;DHT22;39319;52.944;5.928;2023-05-07T08:05:30;16.50;99.70
53422;DHT22;39319;52.944;5.928;2023-05-07T08:07:56;16.60;99.70
53422;DHT22;39319;52.944;5.928;2023-05-07T08:10:21;16.60;99.90
53422;DHT22;39319;52.944;5.928;2023-05-07T08:12:51;16.80;99.90
53422;DHT22;39319;52.944;5.928;2023-05-07T08:15:17;17.00;99.90
53422;DHT22;39319;52.944;5.928;2023-05-07T08:17:43;17.10;99.90
53422;DHT22;39319;52.944;5.928;2023-05-07T08:20:09;16.90;99.50
53422;DHT22;39319;52.944;5.928;2023-05-07T08:22:38;17.10;99.50
53422;DHT22;39319;52.944;5.928;2023-05-07T08:25:04;17.30;99.90
53422;DHT22;39319;52.944;5.928;2023-05-07T08:27:30;17.40;99.50
53422;DHT22;39319;52.944;5.928;2023-05-07T08:29:56;17.40;99.40
53422;DHT22;39319;52.944;5.928;2023-05-07T08:32:21;17.30;99.20
53422;DHT22;39319;52.944;5.928;2023-05-07T08:34:47;17.50;99.40
53422;DHT22;39319;52.944;5.928;2023-05-07T08:37:13;17.60;99.30
53422;DHT22;39319;52.944;5.928;2023-05-07T08:39:39;17.50;98.90
53422;DHT22;39319;52.944;5.928;2023-05-07T08:42:05;17.60;98.70
53422;DHT22;39319;52.944;5.928;2023-05-07T08:44:35;17.60;98.40
53422;DHT22;39319;52.944;5.928;2023-05-07T08:47:01;17.70;98.60
53422;DHT22;39319;52.944;5.928;2023-05-07T08:49:28;17.70;98.50
53422;DHT22;39319;52.944;5.928;2023-05-07T08:51:54;17.60;98.30
53422;DHT22;39319;52.944;5.928;2023-05-07T08:54:21;17.80;98.40
53422;DHT22;39319;52.944;5.928;2023-05-07T08:56:47;17.80;97.90
53422;DHT22;39319;52.944;5.928;2023-05-07T08:59:13;18.10;98.60
53422;DHT22;39319;52.944;5.928;2023-05-07T09:01:41;18.20;98.00
53422;DHT22;39319;52.944;5.928;2023-05-07T09:04:07;18.30;98.20
53422;DHT22;39319;52.944;5.928;2023-05-07T09:06:35;18.40;97.30
53422;DHT22;39319;52.944;5.928;2023-05-07T09:09:03;18.60;97.40
53422;DHT22;39319;52.944;5.928;2023-05-07T09:11:30;18.80;97.30
53422;DHT22;39319;52.944;5.928;2023-05-07T09:13:59;18.60;97.20
53422;DHT22;39319;52.944;5.928;2023-05-07T09:16:29;18.70;97.10
53422;DHT22;39319;52.944;5.928;2023-05-07T09:18:58;18.70;97.00
53422;DHT22;39319;52.944;5.928;2023-05-07T09:21:25;18.60;97.10
53422;DHT22;39319;52.944;5.928;2023-05-07T09:23:52;18.60;97.20
53422;DHT22;39319;52.944;5.928;2023-05-07T09:26:21;18.70;97.00
53422;DHT22;39319;52.944;5.928;2023-05-07T09:28:47;18.70;97.00
53422;DHT22;39319;52.944;5.928;2023-05-07T09:31:12;18.70;96.80
53422;DHT22;39319;52.944;5.928;2023-05-07T09:33:39;18.60;96.60
53422;DHT22;39319;52.944;5.928;2023-05-07T09:36:07;18.60;96.30
53422;DHT22;39319;52.944;5.928;2023-05-07T09:38:34;18.60;96.70
53422;DHT22;39319;52.944;5.928;2023-05-07T09:41:10;18.70;96.90
53422;DHT22;39319;52.944;5.928;2023-05-07T09:43:38;18.60;97.00
53422;DHT22;39319;52.944;5.928;2023-05-07T09:46:15;18.80;96.80
53422;DHT22;39319;52.944;5.928;2023-05-07T09:48:43;18.80;97.20
53422;DHT22;39319;52.944;5.928;2023-05-07T09:51:18;18.80;97.10
53422;DHT22;39319;52.944;5.928;2023-05-07T09:53:47;19.00;97.20
53422;DHT22;39319;52.944;5.928;2023-05-07T09:56:14;19.00;97.00
53422;DHT22;39319;52.944;5.928;2023-05-07T09:58:43;19.10;96.50
53422;DHT22;39319;52.944;5.928;2023-05-07T10:01:11;19.20;96.00
53422;DHT22;39319;52.944;5.928;2023-05-07T10:03:40;19.10;96.20
53422;DHT22;39319;52.944;5.928;2023-05-07T10:06:08;19.10;96.50
53422;DHT22;39319;52.944;5.928;2023-05-07T10:08:35;19.10;96.20
53422;DHT22;39319;52.944;5.928;2023-05-07T10:11:01;19.10;96.50
53422;DHT22;39319;52.944;5.928;2023-05-07T10:13:28;19.20;96.80
53422;DHT22;39319;52.944;5.928;2023-05-07T10:15:55;19.30;97.20
53422;DHT22;39319;52.944;5.928;2023-05-07T10:18:22;19.40;97.00
53422;DHT22;39319;52.944;5.928;2023-05-07T10:20:50;19.50;97.10
53422;DHT22;39319;52.944;5.928;2023-05-07T10:23:21;19.80;96.50
53422;DHT22;39319;52.944;5.928;2023-05-07T10:25:48;19.80;96.40
53422;DHT22;39319;52.944;5.928;2023-05-07T10:28:15;20.10;96.10
53422;DHT22;39319;52.944;5.928;2023-05-07T10:31:10;20.00;95.80
53422;DHT22;39319;52.944;5.928;2023-05-07T10:33:42;20.10;95.70
53422;DHT22;39319;52.944;5.928;2023-05-07T10:36:08;20.40;95.60
53422;DHT22;39319;52.944;5.928;2023-05-07T10:38:34;20.30;95.80
53422;DHT22;39319;52.944;5.928;2023-05-07T10:41:00;20.30;95.50
53422;DHT22;39319;52.944;5.928;2023-05-07T10:43:41;20.50;95.90
53422;DHT22;39319;52.944;5.928;2023-05-07T10:46:18;20.50;95.50
53422;DHT22;39319;52.944;5.928;2023-05-07T10:51:34;20.80;94.50
53422;DHT22;39319;52.944;5.928;2023-05-07T10:56:39;20.90;95.20
53422;DHT22;39319;52.944;5.928;2023-05-07T11:01:58;21.00;94.70
53422;DHT22;39319;52.944;5.928;2023-05-07T11:04:25;21.10;94.30
53422;DHT22;39319;52.944;5.928;2023-05-07T11:07:26;21.10;94.20
53422;DHT22;39319;52.944;5.928;2023-05-07T11:09:59;21.10;94.50
53422;DHT22;39319;52.944;5.928;2023-05-07T11:17:28;21.30;93.70
53422;DHT22;39319;52.944;5.928;2023-05-07T11:19:57;21.40;94.00
53422;DHT22;39319;52.944;5.928;2023-05-07T11:25:06;21.70;94.80
53422;DHT22;39319;52.944;5.928;2023-05-07T11:27:32;21.70;93.70
53422;DHT22;39319;52.944;5.928;2023-05-07T11:29:59;21.90;94.50
53422;DHT22;39319;52.944;5.928;2023-05-07T11:32:31;22.20;94.20
53422;DHT22;39319;52.944;5.928;2023-05-07T11:34:59;22.40;92.80
53422;DHT22;39319;52.944;5.928;2023-05-07T11:37:26;22.60;92.80
53422;DHT22;39319;52.944;5.928;2023-05-07T11:40:03;22.80;92.90
53422;DHT22;39319;52.944;5.928;2023-05-07T11:42:32;23.00;92.10
53422;DHT22;39319;52.944;5.928;2023-05-07T11:44:58;23.10;92.70
53422;DHT22;39319;52.944;5.928;2023-05-07T11:47:24;23.20;92.60
53422;DHT22;39319;52.944;5.928;2023-05-07T11:49:54;23.30;92.60
53422;DHT22;39319;52.944;5.928;2023-05-07T11:52:22;23.40;91.70
53422;DHT22;39319;52.944;5.928;2023-05-07T11:54:53;23.40;91.60
53422;DHT22;39319;52.944;5.928;2023-05-07T11:57:20;23.60;91.40
53422;DHT22;39319;52.944;5.928;2023-05-07T11:59:46;23.70;90.90
53422;DHT22;39319;52.944;5.928;2023-05-07T12:02:15;23.60;90.30
53422;DHT22;39319;52.944;5.928;2023-05-07T12:04:41;23.70;90.30
53422;DHT22;39319;52.944;5.928;2023-05-07T12:07:16;23.70;90.60
53422;DHT22;39319;52.944;5.928;2023-05-07T12:09:43;23.70;91.00
53422;DHT22;39319;52.944;5.928;2023-05-07T12:12:08;23.70;90.20
53422;DHT22;39319;52.944;5.928;2023-05-07T12:14:42;23.60;90.10
53422;DHT22;39319;52.944;5.928;2023-05-07T12:17:09;23.60;90.20
53422;DHT22;39319;52.944;5.928;2023-05-07T12:19:36;23.50;89.80
53422;DHT22;39319;52.944;5.928;2023-05-07T12:22:07;23.40;89.10
53422;DHT22;39319;52.944;5.928;2023-05-07T12:25:08;23.30;89.90
53422;DHT22;39319;52.944;5.928;2023-05-07T12:27:37;23.30;90.70
53422;DHT22;39319;52.944;5.928;2023-05-07T12:30:04;23.20;91.00
53422;DHT22;39319;52.944;5.928;2023-05-07T12:32:31;23.20;90.40
53422;DHT22;39319;52.944;5.928;2023-05-07T12:35:01;23.20;90.50
53422;DHT22;39319;52.944;5.928;2023-05-07T12:37:27;23.40;90.80
53422;DHT22;39319;52.944;5.928;2023-05-07T12:40:09;23.60;91.00
53422;DHT22;39319;52.944;5.928;2023-05-07T12:42:39;23.70;90.70
53422;DHT22;39319;52.944;5.928;2023-05-07T12:45:20;23.80;90.90
53422;DHT22;39319;52.944;5.928;2023-05-07T12:47:47;23.80;90.10
53422;DHT22;39319;52.944;5.928;2023-05-07T12:50:16;23.90;90.70
53422;DHT22;39319;52.944;5.928;2023-05-07T12:52:44;23.90;90.70
53422;DHT22;39319;52.944;5.928;2023-05-07T12:55:13;23.90;90.50
53422;DHT22;39319;52.944;5.928;2023-05-07T12:57:49;24.00;90.60
53422;DHT22;39319;52.944;5.928;2023-05-07T13:00:38;24.00;89.20
53422;DHT22;39319;52.944;5.928;2023-05-07T13:03:04;24.00;89.70
53422;DHT22;39319;52.944;5.928;2023-05-07T13:05:31;23.90;89.20
53422;DHT22;39319;52.944;5.928;2023-05-07T13:07:58;23.80;89.10
53422;DHT22;39319;52.944;5.928;2023-05-07T13:10:24;23.70;89.80
53422;DHT22;39319;52.944;5.928;2023-05-07T13:12:51;23.60;89.50
53422;DHT22;39319;52.944;5.928;2023-05-07T13:15:17;23.40;90.20
53422;DHT22;39319;52.944;5.928;2023-05-07T13:17:43;24.00;90.70
53422;DHT22;39319;52.944;5.928;2023-05-07T13:20:09;24.20;90.60
53422;DHT22;39319;52.944;5.928;2023-05-07T13:22:36;24.20;88.60
53422;DHT22;39319;52.944;5.928;2023-05-07T13:25:01;24.20;90.00
53422;DHT22;39319;52.944;5.928;2023-05-07T13:27:27;24.20;89.70
53422;DHT22;39319;52.944;5.928;2023-05-07T13:29:53;24.30;89.00
53422;DHT22;39319;52.944;5.928;2023-05-07T13:32:18;24.30;87.70
53422;DHT22;39319;52.944;5.928;2023-05-07T13:34:44;24.20;88.60
53422;DHT22;39319;52.944;5.928;2023-05-07T13:37:10;24.30;89.70
53422;DHT22;39319;52.944;5.928;2023-05-07T13:39:36;24.40;88.90
53422;DHT22;39319;52.944;5.928;2023-05-07T13:42:04;24.40;87.90
53422;DHT22;39319;52.944;5.928;2023-05-07T13:44:29;24.40;87.30
53422;DHT22;39319;52.944;5.928;2023-05-07T13:46:55;24.50;88.10
53422;DHT22;39319;52.944;5.928;2023-05-07T13:49:21;24.50;87.50
53422;DHT22;39319;52.944;5.928;2023-05-07T13:51:47;24.60;88.10
53422;DHT22;39319;52.944;5.928;2023-05-07T13:54:12;24.60;87.80
53422;DHT22;39319;52.944;5.928;2023-05-07T13:56:38;24.80;88.50
53422;DHT22;39319;52.944;5.928;2023-05-07T13:59:04;24.90;86.50
53422;DHT22;39319;52.944;5.928;2023-05-07T14:01:31;24.90;87.90
53422;DHT22;39319;52.944;5.928;2023-05-07T14:03:57;25.00;86.90
53422;DHT22;39319;52.944;5.928;2023-05-07T14:06:23;25.10;86.10
53422;DHT22;39319;52.944;5.928;2023-05-07T14:08:49;25.30;85.20
53422;DHT22;39319;52.944;5.928;2023-05-07T14:11:14;25.30;84.50
53422;DHT22;39319;52.944;5.928;2023-05-07T14:13:40;25.30;84.20
53422;DHT22;39319;52.944;5.928;2023-05-07T14:16:06;25.30;84.10
53422;DHT22;39319;52.944;5.928;2023-05-07T14:18:31;25.30;84.90
53422;DHT22;39319;52.944;5.928;2023-05-07T14:20:59;25.30;83.50
53422;DHT22;39319;52.944;5.928;2023-05-07T14:23:24;25.30;83.40
53422;DHT22;39319;52.944;5.928;2023-05-07T14:25:52;25.10;82.20
53422;DHT22;39319;52.944;5.928;2023-05-07T14:28:19;25.00;83.30
53422;DHT22;39319;52.944;5.928;2023-05-07T14:30:44;24.90;82.90
53422;DHT22;39319;52.944;5.928;2023-05-07T14:33:10;24.80;82.20
53422;DHT22;39319;52.944;5.928;2023-05-07T14:35:36;24.70;83.70
53422;DHT22;39319;52.944;5.928;2023-05-07T14:38:04;24.60;83.40
53422;DHT22;39319;52.944;5.928;2023-05-07T14:40:30;24.60;85.30
53422;DHT22;39319;52.944;5.928;2023-05-07T14:42:55;24.70;84.00
53422;DHT22;39319;52.944;5.928;2023-05-07T14:45:22;24.70;84.30
53422;DHT22;39319;52.944;5.928;2023-05-07T14:47:48;24.80;83.70
53422;DHT22;39319;52.944;5.928;2023-05-07T14:50:14;24.90;85.20
53422;DHT22;39319;52.944;5.928;2023-05-07T14:52:40;24.80;84.60
53422;DHT22;39319;52.944;5.928;2023-05-07T14:55:06;25.00;83.00
53422;DHT22;39319;52.944;5.928;2023-05-07T14:57:31;25.00;82.10
53422;DHT22;39319;52.944;5.928;2023-05-07T15:00:01;25.10;84.10
53422;DHT22;39319;52.944;5.928;2023-05-07T15:02:27;25.20;83.60
53422;DHT22;39319;52.944;5.928;2023-05-07T15:04:53;25.30;81.80
53422;DHT22;39319;52.944;5.928;2023-05-07T15:07:19;25.50;81.20
53422;DHT22;39319;52.944;5.928;2023-05-07T15:09:45;25.50;80.40
53422;DHT22;39319;52.944;5.928;2023-05-07T15:12:11;25.60;80.70
53422;DHT22;39319;52.944;5.928;2023-05-07T15:14:38;25.70;80.70
53422;DHT22;39319;52.944;5.928;2023-05-07T15:17:04;25.80;81.00
53422;DHT22;39319;52.944;5.928;2023-05-07T15:19:29;25.80;80.40
53422;DHT22;39319;52.944;5.928;2023-05-07T15:21:57;25.70;80.60
53422;DHT22;39319;52.944;5.928;2023-05-07T15:24:23;25.50;79.70
53422;DHT22;39319;52.944;5.928;2023-05-07T15:26:51;25.50;79.90
53422;DHT22;39319;52.944;5.928;2023-05-07T15:29:17;25.40;82.10
53422;DHT22;39319;52.944;5.928;2023-05-07T15:31:43;25.40;80.90
53422;DHT22;39319;52.944;5.928;2023-05-07T15:34:09;25.30;82.30
53422;DHT22;39319;52.944;5.928;2023-05-07T15:36:34;25.30;80.10
53422;DHT22;39319;52.944;5.928;2023-05-07T15:39:01;25.30;80.60
53422;DHT22;39319;52.944;5.928;2023-05-07T15:41:28;25.20;81.10
53422;DHT22;39319;52.944;5.928;2023-05-07T15:43:54;25.20;81.60